createdAt,value
2019-03-21T00:01:38.063Z,3.70
2019-03-21T00:04:14.621Z,3.70
2019-03-21T00:06:43.423Z,3.70
2019-03-21T00:09:15.050Z,3.70
2019-03-21T00:12:01.272Z,3.70
2019-03-21T00:14:47.989Z,3.70
2019-03-21T00:17:22.426Z,3.70
2019-03-21T00:19:51.144Z,3.60
2019-03-21T00:22:19.857Z,3.60
2019-03-21T00:24:48.599Z,3.60
2019-03-21T00:27:17.387Z,3.60
2019-03-21T00:29:46.067Z,3.60
2019-03-21T00:32:14.878Z,3.60
2019-03-21T00:34:43.472Z,3.60
2019-03-21T00:37:12.268Z,3.60
2019-03-21T00:39:41.009Z,3.60
2019-03-21T00:42:09.770Z,3.50
2019-03-21T00:44:38.594Z,3.60
2019-03-21T00:47:07.502Z,3.60
2019-03-21T00:49:36.305Z,3.50
2019-03-21T00:52:05.028Z,3.50
2019-03-21T00:54:33.788Z,3.50
2019-03-21T00:57:02.475Z,3.50
2019-03-21T00:59:31.140Z,3.50
2019-03-21T01:02:00.225Z,3.50
2019-03-21T01:04:29.356Z,3.50
2019-03-21T01:06:58.192Z,3.50
2019-03-21T01:09:26.886Z,3.50
2019-03-21T01:11:55.615Z,3.40
2019-03-21T01:14:29.724Z,3.50
2019-03-21T01:16:54.898Z,3.50
2019-03-21T01:19:23.576Z,3.50
2019-03-21T01:21:52.246Z,3.50
2019-03-21T01:24:21.071Z,3.50
2019-03-21T01:26:49.753Z,3.50
2019-03-21T01:29:18.433Z,3.50
2019-03-21T01:31:47.275Z,3.50
2019-03-21T01:34:16.022Z,3.50
2019-03-21T01:36:44.790Z,3.50
2019-03-21T01:39:13.584Z,3.50
2019-03-21T01:41:42.233Z,3.50
2019-03-21T01:44:10.856Z,3.50
2019-03-21T01:46:39.769Z,3.50
2019-03-21T01:49:08.520Z,3.50
2019-03-21T01:51:37.153Z,3.50
2019-03-21T01:54:05.868Z,3.50
2019-03-21T01:56:34.652Z,3.60
2019-03-21T01:59:03.259Z,3.70
2019-03-21T02:01:32.052Z,3.80
2019-03-21T02:04:00.734Z,3.90
2019-03-21T02:06:29.451Z,4.00
2019-03-21T02:08:58.148Z,4.00
2019-03-21T02:11:27.026Z,4.10
2019-03-21T02:13:55.703Z,4.10
2019-03-21T02:16:24.638Z,4.10
2019-03-21T02:18:53.311Z,4.10
2019-03-21T02:21:22.023Z,4.10
2019-03-21T02:23:50.809Z,4.10
2019-03-21T02:26:19.611Z,4.00
2019-03-21T02:28:48.352Z,4.00
2019-03-21T02:31:17.061Z,4.00
2019-03-21T02:33:45.909Z,4.00
2019-03-21T02:36:14.916Z,4.00
2019-03-21T02:38:43.754Z,3.90
2019-03-21T02:41:14.664Z,3.90
2019-03-21T02:43:43.541Z,3.90
2019-03-21T02:46:12.408Z,4.00
2019-03-21T02:48:41.104Z,4.00
2019-03-21T02:51:09.945Z,4.10
2019-03-21T02:53:38.777Z,4.20
2019-03-21T02:56:10.829Z,4.20
2019-03-21T02:58:39.634Z,4.30
2019-03-21T03:01:08.490Z,4.40
2019-03-21T03:03:37.195Z,4.50
2019-03-21T03:06:06.152Z,4.60
2019-03-21T03:08:34.949Z,4.70
2019-03-21T03:11:11.092Z,4.70
2019-03-21T03:13:41.426Z,4.80
2019-03-21T03:16:10.139Z,4.90
2019-03-21T03:18:38.749Z,5.00
2019-03-21T03:21:07.540Z,5.10
2019-03-21T03:23:36.265Z,5.10
2019-03-21T03:26:05.103Z,5.20
2019-03-21T03:28:45.824Z,5.30
2019-03-21T03:31:14.587Z,5.30
2019-03-21T03:33:43.213Z,5.50
2019-03-21T03:36:13.050Z,5.40
2019-03-21T03:38:41.750Z,5.40
2019-03-21T03:41:12.759Z,5.40
2019-03-21T03:43:41.609Z,5.40
2019-03-21T03:46:10.270Z,5.40
2019-03-21T03:48:39.138Z,5.40
2019-03-21T03:51:07.993Z,5.40
2019-03-21T03:53:36.810Z,5.40
2019-03-21T03:56:05.539Z,5.40
2019-03-21T03:58:40.391Z,5.40
2019-03-21T04:01:09.277Z,5.40
2019-03-21T04:03:39.093Z,5.40
2019-03-21T04:06:07.827Z,5.40
2019-03-21T04:08:36.620Z,5.40
2019-03-21T04:11:05.408Z,5.40
2019-03-21T04:13:34.279Z,5.40
2019-03-21T04:16:03.243Z,5.40
2019-03-21T04:18:31.922Z,5.40
2019-03-21T04:21:07.054Z,5.50
2019-03-21T04:23:35.759Z,5.50
2019-03-21T04:26:13.225Z,5.50
2019-03-21T04:28:42.909Z,5.50
2019-03-21T04:31:11.550Z,5.50
2019-03-21T04:33:40.776Z,5.60
2019-03-21T04:36:09.531Z,5.60
2019-03-21T04:38:38.205Z,5.60
2019-03-21T04:41:06.878Z,5.70
2019-03-21T04:43:35.599Z,5.70
2019-03-21T04:46:04.372Z,5.70
2019-03-21T04:48:33.094Z,5.80
2019-03-21T04:51:01.782Z,5.80
2019-03-21T04:53:30.524Z,5.80
2019-03-21T04:55:59.329Z,5.90
2019-03-21T04:58:28.195Z,5.90
2019-03-21T05:00:58.348Z,5.90
2019-03-21T05:03:31.556Z,5.90
2019-03-21T05:06:00.272Z,5.90
2019-03-21T05:08:28.879Z,6.00
2019-03-21T05:10:57.664Z,6.00
2019-03-21T05:13:26.394Z,6.00
2019-03-21T05:15:55.433Z,6.00
2019-03-21T05:18:33.485Z,6.10
2019-03-21T05:21:03.889Z,6.10
2019-03-21T05:23:32.617Z,6.10
2019-03-21T05:26:03.846Z,6.10
2019-03-21T05:28:31.645Z,6.20
2019-03-21T05:31:09.830Z,6.20
2019-03-21T05:33:38.464Z,6.30
2019-03-21T05:36:07.233Z,6.30
2019-03-21T05:38:35.975Z,6.30
2019-03-21T05:41:04.759Z,6.40
2019-03-21T05:43:45.520Z,6.50
2019-03-21T05:46:25.680Z,6.60
2019-03-21T05:48:44.631Z,6.70
2019-03-21T05:51:13.457Z,6.80
2019-03-21T05:53:42.201Z,6.90
2019-03-21T05:56:10.839Z,7.00
2019-03-21T05:58:39.620Z,7.10
2019-03-21T06:01:10.934Z,7.10
2019-03-21T06:03:53.245Z,7.30
2019-03-21T06:06:33.652Z,7.50
2019-03-21T06:09:02.480Z,7.70
2019-03-21T06:11:31.428Z,8.00
2019-03-21T06:14:00.162Z,8.40
2019-03-21T06:16:37.228Z,8.70
2019-03-21T06:19:11.191Z,8.80
2019-03-21T06:21:48.767Z,8.90
2019-03-21T06:24:26.289Z,9.10
2019-03-21T06:27:14.339Z,9.20
2019-03-21T06:29:37.192Z,9.30
2019-03-21T06:32:05.907Z,9.40
2019-03-21T06:34:34.644Z,9.40
2019-03-21T06:37:03.489Z,9.40
2019-03-21T06:39:32.352Z,9.40
2019-03-21T06:42:01.028Z,9.40
2019-03-21T06:44:29.663Z,9.30
2019-03-21T06:46:58.347Z,9.30
2019-03-21T06:49:27.239Z,9.40
2019-03-21T06:51:55.889Z,9.40
2019-03-21T06:54:24.581Z,9.40
2019-03-21T06:56:53.322Z,9.40
2019-03-21T06:59:22.208Z,9.30
2019-03-21T07:01:51.157Z,9.40
2019-03-21T07:04:19.910Z,9.40
2019-03-21T07:06:48.647Z,9.40
2019-03-21T07:09:17.351Z,9.30
2019-03-21T07:11:46.142Z,9.30
2019-03-21T07:14:14.893Z,9.30
2019-03-21T07:16:43.713Z,9.30
2019-03-21T07:19:12.525Z,9.40
2019-03-21T07:21:41.287Z,9.40
2019-03-21T07:24:09.997Z,9.40
2019-03-21T07:26:38.863Z,9.40
2019-03-21T07:29:07.496Z,9.50
2019-03-21T07:31:36.443Z,9.60
2019-03-21T07:34:05.700Z,9.70
2019-03-21T07:36:34.543Z,9.80
2019-03-21T07:39:04.474Z,9.90
2019-03-21T07:41:34.575Z,9.90
2019-03-21T07:44:03.584Z,9.90
2019-03-21T07:46:33.253Z,10.10
2019-03-21T07:49:02.132Z,10.20
2019-03-21T07:51:30.769Z,10.30
2019-03-21T07:53:59.555Z,10.30
2019-03-21T07:56:28.314Z,10.40
2019-03-21T07:58:57.896Z,10.50
2019-03-21T08:01:26.876Z,10.60
2019-03-21T08:03:55.606Z,10.70
2019-03-21T08:06:24.352Z,10.80
2019-03-21T08:08:53.246Z,10.90
2019-03-21T08:11:22.140Z,11.10
2019-03-21T08:13:50.912Z,11.20
2019-03-21T08:16:19.977Z,11.40
2019-03-21T08:18:48.855Z,11.60
2019-03-21T08:21:17.959Z,11.70
2019-03-21T08:23:46.885Z,11.70
2019-03-21T08:26:15.802Z,11.70
2019-03-21T08:28:44.505Z,11.80
2019-03-21T08:31:14.511Z,11.70
2019-03-21T08:33:44.057Z,11.70
2019-03-21T08:36:12.927Z,11.70
2019-03-21T08:38:41.646Z,11.80
2019-03-21T08:41:10.783Z,11.80
2019-03-21T08:43:39.506Z,11.90
2019-03-21T08:46:08.281Z,12.00
2019-03-21T08:48:37.394Z,12.00
2019-03-21T08:51:08.510Z,12.00
2019-03-21T08:53:36.431Z,12.00
2019-03-21T08:56:05.219Z,12.00
2019-03-21T08:58:34.007Z,12.10
2019-03-21T09:01:02.744Z,12.20
2019-03-21T09:03:31.558Z,12.30
2019-03-21T09:06:00.234Z,12.40
2019-03-21T09:08:28.906Z,12.40
2019-03-21T09:10:57.666Z,12.50
2019-03-21T09:13:26.281Z,12.60
2019-03-21T09:15:55.110Z,12.60
2019-03-21T09:18:23.886Z,12.60
2019-03-21T09:20:52.624Z,12.60
2019-03-21T09:23:21.333Z,12.60
2019-03-21T09:25:51.313Z,12.60
2019-03-21T09:28:20.308Z,12.50
2019-03-21T09:30:50.656Z,12.30
2019-03-21T09:33:19.689Z,12.20
2019-03-21T09:35:48.345Z,12.20
2019-03-21T09:38:17.068Z,12.10
2019-03-21T09:40:45.740Z,12.10
2019-03-21T09:43:14.464Z,12.20
2019-03-21T09:45:43.216Z,12.20
2019-03-21T09:48:11.983Z,12.30
2019-03-21T09:50:40.719Z,12.30
2019-03-21T09:53:09.414Z,12.40
2019-03-21T09:55:38.093Z,12.40
2019-03-21T09:58:06.912Z,12.40
2019-03-21T10:00:36.943Z,12.50
2019-03-21T10:03:06.549Z,12.50
2019-03-21T10:05:35.295Z,12.60
2019-03-21T10:08:04.496Z,12.70
2019-03-21T10:10:34.396Z,12.70
2019-03-21T10:13:03.168Z,12.70
2019-03-21T10:15:32.002Z,12.80
2019-03-21T10:18:00.798Z,13.00
2019-03-21T10:20:29.575Z,13.10
2019-03-21T10:22:58.240Z,13.20
2019-03-21T10:25:27.374Z,13.40
2019-03-21T10:27:56.116Z,13.60
2019-03-21T10:30:39.082Z,13.70
2019-03-21T10:33:09.795Z,13.90
2019-03-21T10:35:38.450Z,14.20
2019-03-21T10:38:07.940Z,14.40
2019-03-21T10:40:37.262Z,14.60
2019-03-21T10:43:06.473Z,14.80
2019-03-21T10:45:36.261Z,14.90
2019-03-21T10:48:05.724Z,15.10
2019-03-21T10:50:36.301Z,15.30
2019-03-21T10:53:05.750Z,15.50
2019-03-21T10:55:34.599Z,15.50
2019-03-21T10:58:03.563Z,15.60
2019-03-21T11:00:32.370Z,15.70
2019-03-21T11:03:01.195Z,15.80
2019-03-21T11:05:29.937Z,15.90
2019-03-21T11:07:58.667Z,16.10
2019-03-21T11:10:27.444Z,16.40
2019-03-21T11:12:56.219Z,16.30
2019-03-21T11:15:24.946Z,16.40
2019-03-21T11:17:55.135Z,16.30
2019-03-21T11:20:34.993Z,16.40
2019-03-21T11:23:04.686Z,16.40
2019-03-21T11:25:33.579Z,16.40
2019-03-21T11:28:02.569Z,16.30
2019-03-21T11:30:42.478Z,16.40
2019-03-21T11:33:11.912Z,16.40
2019-03-21T11:35:40.888Z,16.30
2019-03-21T11:38:09.608Z,16.30
2019-03-21T11:40:38.587Z,16.20
2019-03-21T11:43:08.522Z,16.20
2019-03-21T11:45:37.344Z,16.20
2019-03-21T11:48:06.457Z,16.20
2019-03-21T11:50:35.443Z,16.10
2019-03-21T11:53:04.946Z,16.10
2019-03-21T11:55:33.842Z,16.10
2019-03-21T11:58:02.461Z,16.30
2019-03-21T12:00:42.978Z,16.40
2019-03-21T12:03:04.104Z,16.40
2019-03-21T12:05:32.184Z,16.30
2019-03-21T12:08:01.015Z,16.20
2019-03-21T12:10:29.741Z,16.10
2019-03-21T12:12:58.618Z,16.10
2019-03-21T12:15:27.547Z,16.10
2019-03-21T12:17:56.236Z,16.10
2019-03-21T12:20:29.854Z,16.10
2019-03-21T12:22:58.637Z,16.10
2019-03-21T12:25:27.480Z,16.10
2019-03-21T12:27:56.584Z,16.10
2019-03-21T12:30:36.582Z,16.10
2019-03-21T12:33:05.785Z,15.90
2019-03-21T12:35:34.574Z,15.90
2019-03-21T12:38:03.455Z,15.80
2019-03-21T12:40:32.276Z,15.70
2019-03-21T12:43:00.954Z,15.70
2019-03-21T12:45:29.715Z,15.60
2019-03-21T12:47:58.470Z,15.60
2019-03-21T12:50:27.086Z,15.60
2019-03-21T12:52:55.892Z,15.70
2019-03-21T12:55:24.602Z,15.70
2019-03-21T12:57:53.313Z,15.70
2019-03-21T13:00:27.730Z,15.70
2019-03-21T13:02:56.429Z,15.80
2019-03-21T13:05:28.229Z,15.70
2019-03-21T13:07:57.069Z,15.70
2019-03-21T13:10:26.063Z,15.80
2019-03-21T13:12:54.731Z,16.00
2019-03-21T13:15:29.980Z,16.10
2019-03-21T13:17:54.457Z,16.20
2019-03-21T13:20:23.925Z,16.30
2019-03-21T13:22:53.634Z,16.50
2019-03-21T13:25:22.850Z,16.60
2019-03-21T13:27:51.878Z,16.80
2019-03-21T13:30:21.231Z,17.00
2019-03-21T13:32:50.197Z,16.90
2019-03-21T13:35:19.393Z,17.10
2019-03-21T13:37:48.349Z,17.30
2019-03-21T13:40:17.506Z,17.40
2019-03-21T13:42:46.407Z,17.50
2019-03-21T13:45:15.820Z,17.70
2019-03-21T13:47:44.718Z,17.70
2019-03-21T13:50:13.700Z,17.80
2019-03-21T13:52:42.448Z,17.90
2019-03-21T13:55:11.765Z,18.00
2019-03-21T13:57:40.587Z,17.90
2019-03-21T14:00:12.440Z,17.70
2019-03-21T14:02:41.188Z,17.80
2019-03-21T14:05:09.978Z,17.60
2019-03-21T14:07:38.971Z,17.60
2019-03-21T14:10:09.336Z,17.40
2019-03-21T14:12:38.131Z,17.10
2019-03-21T14:15:09.550Z,16.90
2019-03-21T14:17:38.331Z,16.90
2019-03-21T14:20:09.398Z,16.80
2019-03-21T14:22:38.207Z,16.60
2019-03-21T14:25:07.878Z,16.50
2019-03-21T14:27:37.130Z,16.50
2019-03-21T14:30:14.670Z,16.40
2019-03-21T14:32:43.654Z,16.30
2019-03-21T14:35:12.853Z,16.10
2019-03-21T14:37:41.599Z,16.20
2019-03-21T14:40:12.907Z,16.00
2019-03-21T14:42:42.602Z,15.90
2019-03-21T14:45:13.989Z,15.90
2019-03-21T14:47:42.742Z,16.00
2019-03-21T14:50:13.604Z,16.00
2019-03-21T14:52:42.404Z,15.90
2019-03-21T14:55:13.673Z,15.70
2019-03-21T14:57:42.397Z,15.60
2019-03-21T15:00:14.193Z,15.40
2019-03-21T15:02:42.930Z,15.30
2019-03-21T15:05:12.498Z,15.20
2019-03-21T15:07:41.268Z,15.10
2019-03-21T15:10:12.737Z,15.10
2019-03-21T15:12:41.422Z,15.00
2019-03-21T15:15:12.806Z,15.00
2019-03-21T15:17:41.736Z,14.90
2019-03-21T15:20:13.027Z,14.90
2019-03-21T15:22:42.030Z,14.80
2019-03-21T15:25:12.208Z,14.70
2019-03-21T15:27:40.949Z,14.70
2019-03-21T15:30:13.200Z,14.60
2019-03-21T15:32:42.374Z,14.50
2019-03-21T15:35:12.312Z,14.40
2019-03-21T15:37:41.030Z,14.30
2019-03-21T15:40:12.355Z,14.10
2019-03-21T15:42:41.072Z,14.00
2019-03-21T15:45:22.351Z,14.00
2019-03-21T15:47:43.754Z,13.90
2019-03-21T15:50:18.543Z,13.90
2019-03-21T15:52:47.292Z,13.80
2019-03-21T15:55:16.091Z,13.80
2019-03-21T15:57:45.000Z,13.70
2019-03-21T16:00:16.877Z,13.70
2019-03-21T16:02:45.688Z,13.60
2019-03-21T16:05:14.600Z,13.50
2019-03-21T16:07:43.341Z,13.40
2019-03-21T16:10:12.124Z,13.40
2019-03-21T16:12:40.873Z,13.30
2019-03-21T16:15:09.755Z,13.20
2019-03-21T16:17:38.444Z,13.10
2019-03-21T16:20:08.872Z,13.10
2019-03-21T16:22:37.770Z,13.00
2019-03-21T16:25:08.030Z,12.90
2019-03-21T16:27:37.658Z,12.70
2019-03-21T16:30:10.943Z,12.60
2019-03-21T16:32:39.734Z,12.50
2019-03-21T16:35:09.405Z,12.40
2019-03-21T16:37:38.219Z,12.30
2019-03-21T16:40:09.239Z,12.10
2019-03-21T16:42:37.961Z,12.00
2019-03-21T16:45:09.254Z,11.90
2019-03-21T16:47:38.285Z,11.80
2019-03-21T16:50:14.968Z,11.70
2019-03-21T16:52:44.651Z,11.50
2019-03-21T16:55:14.711Z,11.40
2019-03-21T16:57:43.666Z,11.30
2019-03-21T17:00:18.034Z,11.10
2019-03-21T17:02:50.498Z,11.00
2019-03-21T17:05:22.021Z,10.90
2019-03-21T17:07:49.879Z,10.80
2019-03-21T17:10:19.016Z,10.60
2019-03-21T17:12:47.972Z,10.50
2019-03-21T17:15:17.013Z,10.30
2019-03-21T17:17:45.819Z,10.20
2019-03-21T17:20:14.808Z,10.10
2019-03-21T17:22:43.565Z,10.00
2019-03-21T17:25:13.754Z,9.90
2019-03-21T17:27:42.819Z,9.80
2019-03-21T17:30:18.921Z,9.70
2019-03-21T17:32:47.776Z,9.60
2019-03-21T17:35:16.652Z,9.60
2019-03-21T17:37:45.357Z,9.50
2019-03-21T17:40:15.429Z,9.40
2019-03-21T17:42:44.213Z,9.40
2019-03-21T17:45:15.313Z,9.40
2019-03-21T17:47:44.197Z,9.30
2019-03-21T17:50:15.307Z,9.20
2019-03-21T17:52:44.070Z,9.20
2019-03-21T17:55:13.380Z,9.20
2019-03-21T17:57:42.326Z,9.20
2019-03-21T18:00:16.794Z,9.20
2019-03-21T18:02:45.826Z,9.20
2019-03-21T18:05:14.762Z,9.10
2019-03-21T18:07:43.622Z,9.20
2019-03-21T18:10:29.619Z,9.10
2019-03-21T18:12:58.664Z,9.00
2019-03-21T18:15:27.917Z,9.00
2019-03-21T18:17:56.674Z,8.90
2019-03-21T18:20:25.714Z,8.90
2019-03-21T18:22:57.900Z,8.80
2019-03-21T18:25:26.873Z,8.80
2019-03-21T18:27:55.663Z,8.70
2019-03-21T18:30:24.549Z,8.70
2019-03-21T18:32:53.576Z,8.60
2019-03-21T18:35:22.431Z,8.60
2019-03-21T18:37:51.235Z,8.50
2019-03-21T18:40:20.987Z,8.50
2019-03-21T18:42:49.804Z,8.40
2019-03-21T18:45:19.131Z,8.40
2019-03-21T18:47:47.970Z,8.40
2019-03-21T18:50:17.408Z,8.40
2019-03-21T18:52:46.139Z,8.30
2019-03-21T18:55:15.078Z,8.30
2019-03-21T18:57:43.829Z,8.20
2019-03-21T19:00:15.242Z,8.10
2019-03-21T19:02:44.232Z,8.10
2019-03-21T19:05:13.006Z,8.10
2019-03-21T19:07:41.798Z,8.10
2019-03-21T19:10:12.882Z,8.10
2019-03-21T19:12:41.729Z,8.10
2019-03-21T19:15:12.439Z,8.00
2019-03-21T19:17:41.363Z,7.90
2019-03-21T19:20:19.665Z,7.80
2019-03-21T19:22:51.139Z,7.70
2019-03-21T19:25:20.602Z,7.50
2019-03-21T19:27:49.591Z,7.40
2019-03-21T19:30:21.522Z,7.30
2019-03-21T19:32:50.727Z,7.20
2019-03-21T19:35:19.685Z,7.10
2019-03-21T19:37:48.633Z,7.10
2019-03-21T19:40:22.846Z,7.00
2019-03-21T19:42:52.054Z,7.00
2019-03-21T19:45:21.456Z,6.90
2019-03-21T19:47:50.522Z,6.90
2019-03-21T19:50:20.677Z,6.80
2019-03-21T19:52:49.461Z,6.70
2019-03-21T19:55:25.909Z,6.50
2019-03-21T19:57:49.237Z,6.50
2019-03-21T20:00:24.223Z,6.40
2019-03-21T20:02:53.068Z,6.30
2019-03-21T20:05:22.031Z,6.20
2019-03-21T20:07:50.797Z,6.20
2019-03-21T20:10:23.016Z,6.20
2019-03-21T20:12:52.021Z,6.10
2019-03-21T20:15:20.976Z,6.00
2019-03-21T20:17:50.118Z,5.90
2019-03-21T20:20:19.532Z,5.80
2019-03-21T20:22:48.295Z,5.80
2019-03-21T20:25:17.194Z,5.80
2019-03-21T20:27:46.480Z,5.80
2019-03-21T20:30:22.452Z,5.80
2019-03-21T20:32:51.449Z,5.80
2019-03-21T20:35:20.105Z,5.80
2019-03-21T20:37:48.972Z,5.80
2019-03-21T20:40:19.224Z,5.80
2019-03-21T20:42:48.072Z,5.70
2019-03-21T20:45:20.342Z,5.70
2019-03-21T20:47:49.108Z,5.60
2019-03-21T20:50:18.758Z,5.60
2019-03-21T20:52:47.931Z,5.50
2019-03-21T20:55:17.049Z,5.50
2019-03-21T20:57:45.961Z,5.40
2019-03-21T21:00:22.999Z,5.40
2019-03-21T21:02:53.113Z,5.30
2019-03-21T21:05:23.229Z,5.30
2019-03-21T21:07:52.458Z,5.20
2019-03-21T21:10:21.425Z,5.30
2019-03-21T21:12:50.313Z,5.30
2019-03-21T21:15:19.214Z,5.30
2019-03-21T21:17:48.051Z,5.20
2019-03-21T21:20:17.678Z,5.10
2019-03-21T21:22:46.529Z,5.10
2019-03-21T21:25:15.497Z,5.10
2019-03-21T21:27:49.866Z,5.10
2019-03-21T21:30:20.601Z,5.00
2019-03-21T21:32:49.556Z,4.90
2019-03-21T21:35:18.688Z,4.80
2019-03-21T21:37:47.583Z,4.80
2019-03-21T21:40:17.550Z,4.80
2019-03-21T21:42:46.847Z,4.80
2019-03-21T21:45:17.279Z,5.00
2019-03-21T21:47:46.873Z,5.10
2019-03-21T21:50:17.399Z,5.10
2019-03-21T21:52:46.343Z,5.10
2019-03-21T21:55:15.434Z,5.10
2019-03-21T21:57:44.526Z,5.10
2019-03-21T22:00:21.071Z,5.10
2019-03-21T22:02:49.711Z,5.10
2019-03-21T22:05:18.744Z,5.10
2019-03-21T22:07:47.812Z,5.20
2019-03-21T22:10:16.722Z,5.20
2019-03-21T22:12:45.595Z,5.30
2019-03-21T22:15:15.886Z,5.40
2019-03-21T22:17:44.785Z,5.50
2019-03-21T22:20:14.889Z,5.60
2019-03-21T22:22:43.824Z,5.60
2019-03-21T22:25:13.043Z,5.50
2019-03-21T22:27:42.114Z,5.50
2019-03-21T22:30:16.713Z,5.50
2019-03-21T22:32:45.724Z,5.60
2019-03-21T22:35:14.499Z,5.70
2019-03-21T22:37:43.461Z,5.70
2019-03-21T22:40:14.512Z,5.80
2019-03-21T22:42:43.127Z,5.80
2019-03-21T22:45:16.832Z,5.80
2019-03-21T22:47:45.625Z,5.90
2019-03-21T22:50:15.995Z,6.00
2019-03-21T22:52:45.396Z,6.00
2019-03-21T22:55:14.654Z,6.00
2019-03-21T22:57:43.565Z,6.10
2019-03-21T23:00:34.874Z,6.10
2019-03-21T23:03:04.074Z,6.10
2019-03-21T23:05:32.768Z,6.20
2019-03-21T23:08:01.435Z,6.10
2019-03-21T23:10:30.170Z,6.20
2019-03-21T23:12:58.911Z,6.20
2019-03-21T23:15:27.644Z,6.10
2019-03-21T23:17:56.367Z,6.10
2019-03-21T23:20:25.228Z,6.10
2019-03-21T23:22:54.081Z,6.10
2019-03-21T23:25:22.814Z,6.10
2019-03-21T23:27:51.515Z,6.10
2019-03-21T23:30:20.431Z,6.00
2019-03-21T23:32:49.129Z,6.00
2019-03-21T23:35:17.909Z,5.90
2019-03-21T23:37:46.719Z,5.90
2019-03-21T23:40:16.460Z,5.80
2019-03-21T23:42:45.264Z,5.70
2019-03-21T23:45:14.578Z,5.60
2019-03-21T23:47:43.397Z,5.40
2019-03-21T23:50:15.934Z,5.40
2019-03-21T23:52:44.745Z,5.40
2019-03-21T23:55:13.678Z,5.20
2019-03-21T23:57:42.386Z,5.20
